ADDS TAF Data INFO
IDs: Format: Raw Decoded Include METARs

Data at: 1221 UTC 20 May 2018

KELP 201151Z 31004KT 10SM FEW250 18/M01 A2997 RMK AO2 SLP077 T01781011 10211 20144 53017

KELP 201120Z 2012/2112 VRB05KT P6SM FEW250
  FM201400 07010KT P6SM FEW250
  FM202200 11012KT P6SM SCT090 SCT250
  FM210200 10015G23KT P6SM SCT090 SCT250